sensor_id;sensor_type;location;lat;lon;timestamp;P1;durP1;ratioP1;P2;durP2;ratioP2
8058;SDS011;4072;42.668;23.396;2022-12-07T00:00:55;29.70;;;18.03;;
8058;SDS011;4072;42.668;23.396;2022-12-07T00:03:31;32.00;;;19.20;;
8058;SDS011;4072;42.668;23.396;2022-12-07T00:05:59;23.40;;;16.27;;
8058;SDS011;4072;42.668;23.396;2022-12-07T00:08:29;33.67;;;19.67;;
8058;SDS011;4072;42.668;23.396;2022-12-07T00:11:00;31.90;;;19.33;;
8058;SDS011;4072;42.668;23.396;2022-12-07T00:13:28;29.93;;;19.33;;
8058;SDS011;4072;42.668;23.396;2022-12-07T00:15:59;28.50;;;18.23;;
8058;SDS011;4072;42.668;23.396;2022-12-07T00:18:27;31.20;;;19.83;;
8058;SDS011;4072;42.668;23.396;2022-12-07T00:20:58;28.40;;;16.93;;
8058;SDS011;4072;42.668;23.396;2022-12-07T00:23:26;34.50;;;19.10;;
8058;SDS011;4072;42.668;23.396;2022-12-07T00:25:56;30.50;;;19.27;;
8058;SDS011;4072;42.668;23.396;2022-12-07T00:28:23;29.83;;;18.13;;
8058;SDS011;4072;42.668;23.396;2022-12-07T00:30:51;30.80;;;19.80;;
8058;SDS011;4072;42.668;23.396;2022-12-07T00:33:19;30.10;;;19.60;;
8058;SDS011;4072;42.668;23.396;2022-12-07T00:35:54;32.00;;;19.10;;
8058;SDS011;4072;42.668;23.396;2022-12-07T00:38:22;28.63;;;18.13;;
8058;SDS011;4072;42.668;23.396;2022-12-07T00:40:56;29.00;;;19.50;;
8058;SDS011;4072;42.668;23.396;2022-12-07T00:43:24;28.93;;;18.07;;
8058;SDS011;4072;42.668;23.396;2022-12-07T00:45:52;32.00;;;19.33;;
8058;SDS011;4072;42.668;23.396;2022-12-07T00:48:20;26.93;;;17.97;;
8058;SDS011;4072;42.668;23.396;2022-12-07T00:50:48;30.83;;;18.47;;
8058;SDS011;4072;42.668;23.396;2022-12-07T00:53:16;29.33;;;18.50;;
8058;SDS011;4072;42.668;23.396;2022-12-07T00:55:44;28.13;;;18.27;;
8058;SDS011;4072;42.668;23.396;2022-12-07T00:58:15;30.80;;;18.50;;
8058;SDS011;4072;42.668;23.396;2022-12-07T01:00:43;28.67;;;18.30;;
8058;SDS011;4072;42.668;23.396;2022-12-07T01:03:12;25.13;;;17.27;;
8058;SDS011;4072;42.668;23.396;2022-12-07T01:05:40;30.57;;;18.33;;
8058;SDS011;4072;42.668;23.396;2022-12-07T01:08:16;27.63;;;19.70;;
8058;SDS011;4072;42.668;23.396;2022-12-07T01:10:45;30.70;;;19.67;;
8058;SDS011;4072;42.668;23.396;2022-12-07T01:13:15;29.77;;;18.87;;
8058;SDS011;4072;42.668;23.396;2022-12-07T01:15:43;33.70;;;18.23;;
8058;SDS011;4072;42.668;23.396;2022-12-07T01:18:11;34.60;;;19.67;;
8058;SDS011;4072;42.668;23.396;2022-12-07T01:20:39;34.00;;;19.47;;
8058;SDS011;4072;42.668;23.396;2022-12-07T01:23:07;32.07;;;19.57;;
8058;SDS011;4072;42.668;23.396;2022-12-07T01:25:35;33.70;;;20.30;;
8058;SDS011;4072;42.668;23.396;2022-12-07T01:28:03;30.83;;;19.13;;
8058;SDS011;4072;42.668;23.396;2022-12-07T01:30:33;39.00;;;20.90;;
8058;SDS011;4072;42.668;23.396;2022-12-07T01:33:02;26.47;;;18.20;;
8058;SDS011;4072;42.668;23.396;2022-12-07T01:35:33;28.10;;;19.07;;
8058;SDS011;4072;42.668;23.396;2022-12-07T01:38:01;31.40;;;18.50;;
8058;SDS011;4072;42.668;23.396;2022-12-07T01:40:29;30.17;;;18.80;;
8058;SDS011;4072;42.668;23.396;2022-12-07T01:42:57;30.57;;;19.27;;
8058;SDS011;4072;42.668;23.396;2022-12-07T01:48:09;26.20;;;16.67;;
8058;SDS011;4072;42.668;23.396;2022-12-07T01:50:38;26.30;;;18.50;;
8058;SDS011;4072;42.668;23.396;2022-12-07T01:53:08;30.60;;;18.97;;
8058;SDS011;4072;42.668;23.396;2022-12-07T01:55:38;28.70;;;18.10;;
8058;SDS011;4072;42.668;23.396;2022-12-07T01:58:08;28.67;;;19.20;;
8058;SDS011;4072;42.668;23.396;2022-12-07T02:00:37;24.33;;;16.30;;
8058;SDS011;4072;42.668;23.396;2022-12-07T02:03:05;28.23;;;17.77;;
8058;SDS011;4072;42.668;23.396;2022-12-07T02:05:37;26.90;;;16.07;;
8058;SDS011;4072;42.668;23.396;2022-12-07T02:08:06;21.07;;;13.43;;
8058;SDS011;4072;42.668;23.396;2022-12-07T02:10:39;23.40;;;14.10;;
8058;SDS011;4072;42.668;23.396;2022-12-07T02:13:08;26.00;;;16.47;;
8058;SDS011;4072;42.668;23.396;2022-12-07T02:18:29;29.30;;;19.03;;
8058;SDS011;4072;42.668;23.396;2022-12-07T02:21:07;28.17;;;18.07;;
8058;SDS011;4072;42.668;23.396;2022-12-07T02:29:16;26.20;;;16.93;;
8058;SDS011;4072;42.668;23.396;2022-12-07T02:31:46;27.03;;;17.13;;
8058;SDS011;4072;42.668;23.396;2022-12-07T02:34:19;27.87;;;18.10;;
8058;SDS011;4072;42.668;23.396;2022-12-07T02:36:51;28.50;;;17.73;;
8058;SDS011;4072;42.668;23.396;2022-12-07T02:39:23;25.27;;;16.77;;
8058;SDS011;4072;42.668;23.396;2022-12-07T02:41:55;24.50;;;15.03;;
8058;SDS011;4072;42.668;23.396;2022-12-07T02:44:27;24.23;;;15.03;;
8058;SDS011;4072;42.668;23.396;2022-12-07T02:46:56;27.87;;;16.63;;
8058;SDS011;4072;42.668;23.396;2022-12-07T02:49:26;23.93;;;17.07;;
8058;SDS011;4072;42.668;23.396;2022-12-07T02:51:55;28.73;;;17.67;;
8058;SDS011;4072;42.668;23.396;2022-12-07T02:54:23;23.73;;;15.93;;
8058;SDS011;4072;42.668;23.396;2022-12-07T02:56:52;26.00;;;15.93;;
8058;SDS011;4072;42.668;23.396;2022-12-07T02:59:29;27.30;;;16.83;;
8058;SDS011;4072;42.668;23.396;2022-12-07T03:02:00;26.77;;;16.23;;
8058;SDS011;4072;42.668;23.396;2022-12-07T03:04:35;28.23;;;16.43;;
8058;SDS011;4072;42.668;23.396;2022-12-07T03:07:06;24.33;;;17.13;;
8058;SDS011;4072;42.668;23.396;2022-12-07T03:09:38;26.13;;;15.73;;
8058;SDS011;4072;42.668;23.396;2022-12-07T03:12:12;27.00;;;16.60;;
8058;SDS011;4072;42.668;23.396;2022-12-07T03:14:44;28.73;;;14.90;;
8058;SDS011;4072;42.668;23.396;2022-12-07T03:17:14;33.10;;;18.43;;
8058;SDS011;4072;42.668;23.396;2022-12-07T03:19:43;27.87;;;18.70;;
8058;SDS011;4072;42.668;23.396;2022-12-07T03:22:13;30.63;;;17.80;;
8058;SDS011;4072;42.668;23.396;2022-12-07T03:24:43;27.70;;;15.87;;
8058;SDS011;4072;42.668;23.396;2022-12-07T03:27:13;23.83;;;15.87;;
8058;SDS011;4072;42.668;23.396;2022-12-07T03:29:46;28.60;;;16.93;;
8058;SDS011;4072;42.668;23.396;2022-12-07T03:32:16;26.60;;;16.63;;
8058;SDS011;4072;42.668;23.396;2022-12-07T03:34:49;28.77;;;17.07;;
8058;SDS011;4072;42.668;23.396;2022-12-07T03:37:18;29.80;;;17.90;;
8058;SDS011;4072;42.668;23.396;2022-12-07T03:39:49;28.53;;;17.57;;
8058;SDS011;4072;42.668;23.396;2022-12-07T03:42:20;26.93;;;17.07;;
8058;SDS011;4072;42.668;23.396;2022-12-07T03:44:50;33.43;;;17.53;;
8058;SDS011;4072;42.668;23.396;2022-12-07T03:47:20;29.53;;;18.07;;
8058;SDS011;4072;42.668;23.396;2022-12-07T03:49:50;28.27;;;18.50;;
8058;SDS011;4072;42.668;23.396;2022-12-07T03:52:21;28.97;;;18.40;;
8058;SDS011;4072;42.668;23.396;2022-12-07T03:54:52;26.37;;;17.73;;
8058;SDS011;4072;42.668;23.396;2022-12-07T03:57:24;26.23;;;17.83;;
8058;SDS011;4072;42.668;23.396;2022-12-07T03:59:55;30.43;;;17.50;;
8058;SDS011;4072;42.668;23.396;2022-12-07T04:02:23;31.27;;;17.37;;
8058;SDS011;4072;42.668;23.396;2022-12-07T04:04:52;28.13;;;17.80;;
8058;SDS011;4072;42.668;23.396;2022-12-07T04:07:20;25.27;;;17.37;;
8058;SDS011;4072;42.668;23.396;2022-12-07T04:09:49;29.70;;;17.20;;
8058;SDS011;4072;42.668;23.396;2022-12-07T04:12:18;29.07;;;16.37;;
8058;SDS011;4072;42.668;23.396;2022-12-07T04:14:45;29.40;;;16.03;;
8058;SDS011;4072;42.668;23.396;2022-12-07T04:17:15;27.77;;;17.53;;
8058;SDS011;4072;42.668;23.396;2022-12-07T04:19:43;30.77;;;17.63;;
8058;SDS011;4072;42.668;23.396;2022-12-07T04:22:12;30.17;;;18.30;;
8058;SDS011;4072;42.668;23.396;2022-12-07T04:24:41;28.50;;;16.97;;
8058;SDS011;4072;42.668;23.396;2022-12-07T04:27:09;28.97;;;17.40;;
8058;SDS011;4072;42.668;23.396;2022-12-07T04:29:36;32.50;;;18.30;;
8058;SDS011;4072;42.668;23.396;2022-12-07T04:32:04;30.80;;;18.20;;
8058;SDS011;4072;42.668;23.396;2022-12-07T04:34:34;27.57;;;17.53;;
8058;SDS011;4072;42.668;23.396;2022-12-07T04:37:02;28.43;;;16.57;;
8058;SDS011;4072;42.668;23.396;2022-12-07T04:39:30;28.97;;;17.20;;
8058;SDS011;4072;42.668;23.396;2022-12-07T04:42:01;33.20;;;19.00;;
8058;SDS011;4072;42.668;23.396;2022-12-07T04:44:29;29.13;;;18.40;;
8058;SDS011;4072;42.668;23.396;2022-12-07T04:46:57;26.73;;;16.73;;
8058;SDS011;4072;42.668;23.396;2022-12-07T04:49:26;31.50;;;19.30;;
8058;SDS011;4072;42.668;23.396;2022-12-07T04:51:55;35.23;;;20.30;;
8058;SDS011;4072;42.668;23.396;2022-12-07T04:54:23;30.67;;;17.80;;
8058;SDS011;4072;42.668;23.396;2022-12-07T04:56:54;29.43;;;18.13;;
8058;SDS011;4072;42.668;23.396;2022-12-07T04:59:23;34.63;;;21.53;;
8058;SDS011;4072;42.668;23.396;2022-12-07T05:01:51;29.80;;;18.40;;
8058;SDS011;4072;42.668;23.396;2022-12-07T05:04:18;35.77;;;17.77;;
8058;SDS011;4072;42.668;23.396;2022-12-07T05:06:46;28.53;;;17.67;;
8058;SDS011;4072;42.668;23.396;2022-12-07T05:09:17;28.77;;;18.40;;
8058;SDS011;4072;42.668;23.396;2022-12-07T05:11:45;32.37;;;19.80;;
8058;SDS011;4072;42.668;23.396;2022-12-07T05:14:14;34.50;;;19.37;;
8058;SDS011;4072;42.668;23.396;2022-12-07T05:16:42;33.63;;;18.93;;
8058;SDS011;4072;42.668;23.396;2022-12-07T05:19:11;36.37;;;21.43;;
8058;SDS011;4072;42.668;23.396;2022-12-07T05:21:39;35.60;;;21.00;;
8058;SDS011;4072;42.668;23.396;2022-12-07T05:24:07;36.63;;;20.97;;
8058;SDS011;4072;42.668;23.396;2022-12-07T05:26:37;31.57;;;20.47;;
8058;SDS011;4072;42.668;23.396;2022-12-07T05:29:05;35.70;;;20.73;;
8058;SDS011;4072;42.668;23.396;2022-12-07T05:31:33;36.57;;;20.77;;
8058;SDS011;4072;42.668;23.396;2022-12-07T05:34:01;42.03;;;21.87;;
8058;SDS011;4072;42.668;23.396;2022-12-07T05:36:29;38.13;;;23.23;;
8058;SDS011;4072;42.668;23.396;2022-12-07T05:38:58;37.80;;;23.30;;
8058;SDS011;4072;42.668;23.396;2022-12-07T05:41:26;40.23;;;22.27;;
8058;SDS011;4072;42.668;23.396;2022-12-07T05:44:12;38.40;;;23.10;;
8058;SDS011;4072;42.668;23.396;2022-12-07T05:46:40;39.43;;;23.73;;
8058;SDS011;4072;42.668;23.396;2022-12-07T05:49:07;36.93;;;23.70;;
8058;SDS011;4072;42.668;23.396;2022-12-07T05:51:35;41.03;;;24.30;;
8058;SDS011;4072;42.668;23.396;2022-12-07T05:54:04;33.60;;;21.97;;
8058;SDS011;4072;42.668;23.396;2022-12-07T05:56:31;36.57;;;21.87;;
8058;SDS011;4072;42.668;23.396;2022-12-07T05:58:59;45.23;;;25.60;;
8058;SDS011;4072;42.668;23.396;2022-12-07T06:01:46;38.83;;;24.13;;
8058;SDS011;4072;42.668;23.396;2022-12-07T06:04:14;38.90;;;25.07;;
8058;SDS011;4072;42.668;23.396;2022-12-07T06:06:41;40.77;;;23.13;;
8058;SDS011;4072;42.668;23.396;2022-12-07T06:09:09;41.37;;;24.77;;
8058;SDS011;4072;42.668;23.396;2022-12-07T06:11:38;45.97;;;28.20;;
8058;SDS011;4072;42.668;23.396;2022-12-07T06:14:23;46.37;;;26.30;;
8058;SDS011;4072;42.668;23.396;2022-12-07T06:16:52;34.63;;;23.37;;
8058;SDS011;4072;42.668;23.396;2022-12-07T06:19:20;41.33;;;26.00;;
8058;SDS011;4072;42.668;23.396;2022-12-07T06:21:49;42.30;;;24.13;;
8058;SDS011;4072;42.668;23.396;2022-12-07T06:24:21;48.53;;;26.37;;
8058;SDS011;4072;42.668;23.396;2022-12-07T06:26:49;39.40;;;25.40;;
8058;SDS011;4072;42.668;23.396;2022-12-07T06:29:17;41.60;;;26.03;;
8058;SDS011;4072;42.668;23.396;2022-12-07T06:31:45;44.83;;;26.17;;
8058;SDS011;4072;42.668;23.396;2022-12-07T06:34:17;46.67;;;25.73;;
8058;SDS011;4072;42.668;23.396;2022-12-07T06:36:45;38.17;;;23.07;;
8058;SDS011;4072;42.668;23.396;2022-12-07T06:39:18;33.50;;;22.30;;
8058;SDS011;4072;42.668;23.396;2022-12-07T06:41:46;38.93;;;25.43;;
8058;SDS011;4072;42.668;23.396;2022-12-07T06:44:14;51.30;;;27.83;;
8058;SDS011;4072;42.668;23.396;2022-12-07T06:46:42;47.37;;;28.27;;
8058;SDS011;4072;42.668;23.396;2022-12-07T06:49:10;45.97;;;31.03;;
8058;SDS011;4072;42.668;23.396;2022-12-07T06:51:40;40.83;;;27.37;;
8058;SDS011;4072;42.668;23.396;2022-12-07T06:54:10;51.17;;;32.13;;
8058;SDS011;4072;42.668;23.396;2022-12-07T06:56:38;53.73;;;35.57;;
8058;SDS011;4072;42.668;23.396;2022-12-07T06:59:06;64.47;;;42.60;;
8058;SDS011;4072;42.668;23.396;2022-12-07T07:01:34;55.93;;;37.47;;
8058;SDS011;4072;42.668;23.396;2022-12-07T07:04:04;83.23;;;52.37;;
8058;SDS011;4072;42.668;23.396;2022-12-07T07:06:32;76.23;;;46.37;;
8058;SDS011;4072;42.668;23.396;2022-12-07T07:09:02;74.77;;;46.20;;
8058;SDS011;4072;42.668;23.396;2022-12-07T07:11:32;64.03;;;41.57;;
8058;SDS011;4072;42.668;23.396;2022-12-07T07:14:00;67.80;;;43.17;;
8058;SDS011;4072;42.668;23.396;2022-12-07T07:16:29;62.97;;;40.80;;
8058;SDS011;4072;42.668;23.396;2022-12-07T07:19:00;74.87;;;44.03;;
8058;SDS011;4072;42.668;23.396;2022-12-07T07:21:28;73.67;;;46.83;;
8058;SDS011;4072;42.668;23.396;2022-12-07T07:23:55;67.87;;;46.63;;
8058;SDS011;4072;42.668;23.396;2022-12-07T07:26:25;68.67;;;42.37;;
8058;SDS011;4072;42.668;23.396;2022-12-07T07:28:54;71.17;;;44.10;;
8058;SDS011;4072;42.668;23.396;2022-12-07T07:31:22;64.70;;;42.77;;
8058;SDS011;4072;42.668;23.396;2022-12-07T07:33:52;58.63;;;37.00;;
8058;SDS011;4072;42.668;23.396;2022-12-07T07:36:20;67.40;;;42.17;;
8058;SDS011;4072;42.668;23.396;2022-12-07T07:38:48;71.90;;;47.57;;
8058;SDS011;4072;42.668;23.396;2022-12-07T07:41:15;61.00;;;40.73;;
8058;SDS011;4072;42.668;23.396;2022-12-07T07:43:45;50.60;;;34.03;;
8058;SDS011;4072;42.668;23.396;2022-12-07T07:46:13;52.33;;;34.60;;
8058;SDS011;4072;42.668;23.396;2022-12-07T07:48:41;55.67;;;35.53;;
8058;SDS011;4072;42.668;23.396;2022-12-07T07:51:09;62.20;;;39.00;;
8058;SDS011;4072;42.668;23.396;2022-12-07T07:53:37;66.73;;;42.20;;
8058;SDS011;4072;42.668;23.396;2022-12-07T07:56:05;64.30;;;41.63;;
8058;SDS011;4072;42.668;23.396;2022-12-07T07:58:33;63.40;;;39.40;;
8058;SDS011;4072;42.668;23.396;2022-12-07T08:01:04;69.90;;;38.90;;
8058;SDS011;4072;42.668;23.396;2022-12-07T08:03:33;60.90;;;35.60;;
8058;SDS011;4072;42.668;23.396;2022-12-07T08:06:02;57.63;;;32.90;;
8058;SDS011;4072;42.668;23.396;2022-12-07T08:08:31;46.00;;;28.13;;
8058;SDS011;4072;42.668;23.396;2022-12-07T08:11:00;48.43;;;28.50;;
8058;SDS011;4072;42.668;23.396;2022-12-07T08:13:28;47.03;;;30.03;;
8058;SDS011;4072;42.668;23.396;2022-12-07T08:15:57;45.50;;;27.30;;
8058;SDS011;4072;42.668;23.396;2022-12-07T08:18:28;45.03;;;26.43;;
8058;SDS011;4072;42.668;23.396;2022-12-07T08:20:58;36.83;;;24.10;;
8058;SDS011;4072;42.668;23.396;2022-12-07T08:23:26;45.10;;;26.50;;
8058;SDS011;4072;42.668;23.396;2022-12-07T08:26:05;38.00;;;23.70;;
8058;SDS011;4072;42.668;23.396;2022-12-07T08:28:34;35.03;;;23.67;;
8058;SDS011;4072;42.668;23.396;2022-12-07T08:31:03;39.97;;;25.77;;
8058;SDS011;4072;42.668;23.396;2022-12-07T08:33:33;36.47;;;25.83;;
8058;SDS011;4072;42.668;23.396;2022-12-07T08:36:01;37.07;;;25.53;;
8058;SDS011;4072;42.668;23.396;2022-12-07T08:38:29;39.60;;;25.53;;
8058;SDS011;4072;42.668;23.396;2022-12-07T08:40:57;35.90;;;23.50;;
8058;SDS011;4072;42.668;23.396;2022-12-07T08:43:27;43.10;;;27.03;;
8058;SDS011;4072;42.668;23.396;2022-12-07T08:45:58;34.10;;;21.37;;
8058;SDS011;4072;42.668;23.396;2022-12-07T08:48:30;35.63;;;23.40;;
8058;SDS011;4072;42.668;23.396;2022-12-07T08:51:02;42.13;;;24.00;;
8058;SDS011;4072;42.668;23.396;2022-12-07T08:53:30;40.97;;;25.07;;
8058;SDS011;4072;42.668;23.396;2022-12-07T08:55:58;36.93;;;23.90;;
8058;SDS011;4072;42.668;23.396;2022-12-07T08:58:27;37.53;;;23.67;;
8058;SDS011;4072;42.668;23.396;2022-12-07T09:00:55;40.87;;;22.73;;
8058;SDS011;4072;42.668;23.396;2022-12-07T09:03:23;36.03;;;22.83;;
8058;SDS011;4072;42.668;23.396;2022-12-07T09:05:52;30.33;;;21.27;;
8058;SDS011;4072;42.668;23.396;2022-12-07T09:08:25;36.33;;;20.97;;
8058;SDS011;4072;42.668;23.396;2022-12-07T09:10:54;32.03;;;21.63;;
8058;SDS011;4072;42.668;23.396;2022-12-07T09:13:22;28.97;;;18.70;;
8058;SDS011;4072;42.668;23.396;2022-12-07T09:15:51;29.80;;;18.33;;
8058;SDS011;4072;42.668;23.396;2022-12-07T09:18:19;28.17;;;19.13;;
8058;SDS011;4072;42.668;23.396;2022-12-07T09:20:46;37.73;;;21.83;;
8058;SDS011;4072;42.668;23.396;2022-12-07T09:23:14;35.63;;;21.27;;
8058;SDS011;4072;42.668;23.396;2022-12-07T09:25:44;34.17;;;22.33;;
8058;SDS011;4072;42.668;23.396;2022-12-07T09:28:13;38.57;;;21.97;;
8058;SDS011;4072;42.668;23.396;2022-12-07T09:30:44;32.80;;;21.60;;
8058;SDS011;4072;42.668;23.396;2022-12-07T09:33:34;31.97;;;21.57;;
8058;SDS011;4072;42.668;23.396;2022-12-07T09:36:04;28.27;;;18.83;;
8058;SDS011;4072;42.668;23.396;2022-12-07T09:38:33;31.43;;;20.93;;
8058;SDS011;4072;42.668;23.396;2022-12-07T09:41:05;30.40;;;20.90;;
8058;SDS011;4072;42.668;23.396;2022-12-07T09:43:36;31.37;;;19.03;;
8058;SDS011;4072;42.668;23.396;2022-12-07T09:46:08;30.67;;;21.27;;
8058;SDS011;4072;42.668;23.396;2022-12-07T09:48:39;26.43;;;17.00;;
8058;SDS011;4072;42.668;23.396;2022-12-07T09:51:12;26.53;;;18.37;;
8058;SDS011;4072;42.668;23.396;2022-12-07T09:53:48;29.43;;;18.80;;
8058;SDS011;4072;42.668;23.396;2022-12-07T09:56:18;27.23;;;17.57;;
8058;SDS011;4072;42.668;23.396;2022-12-07T09:58:48;33.83;;;18.83;;
8058;SDS011;4072;42.668;23.396;2022-12-07T10:01:16;26.70;;;18.13;;
8058;SDS011;4072;42.668;23.396;2022-12-07T10:03:47;28.60;;;18.60;;
8058;SDS011;4072;42.668;23.396;2022-12-07T10:06:15;28.73;;;17.67;;
8058;SDS011;4072;42.668;23.396;2022-12-07T10:08:45;32.07;;;18.33;;
8058;SDS011;4072;42.668;23.396;2022-12-07T10:11:13;28.10;;;18.37;;
8058;SDS011;4072;42.668;23.396;2022-12-07T10:13:44;28.83;;;18.37;;
8058;SDS011;4072;42.668;23.396;2022-12-07T10:19:21;27.57;;;17.67;;
8058;SDS011;4072;42.668;23.396;2022-12-07T10:22:03;30.57;;;18.57;;
8058;SDS011;4072;42.668;23.396;2022-12-07T10:24:31;31.27;;;17.40;;
8058;SDS011;4072;42.668;23.396;2022-12-07T10:26:59;31.53;;;19.60;;
8058;SDS011;4072;42.668;23.396;2022-12-07T10:29:30;30.83;;;17.30;;
8058;SDS011;4072;42.668;23.396;2022-12-07T10:31:58;30.83;;;18.33;;
8058;SDS011;4072;42.668;23.396;2022-12-07T10:34:27;30.93;;;19.07;;
8058;SDS011;4072;42.668;23.396;2022-12-07T10:37:13;29.37;;;19.73;;
8058;SDS011;4072;42.668;23.396;2022-12-07T10:39:42;30.57;;;18.03;;
8058;SDS011;4072;42.668;23.396;2022-12-07T10:42:17;26.00;;;18.37;;
8058;SDS011;4072;42.668;23.396;2022-12-07T10:44:47;30.07;;;18.07;;
8058;SDS011;4072;42.668;23.396;2022-12-07T10:47:20;27.00;;;18.53;;
8058;SDS011;4072;42.668;23.396;2022-12-07T10:50:10;27.10;;;19.43;;
8058;SDS011;4072;42.668;23.396;2022-12-07T10:52:46;32.53;;;19.27;;
8058;SDS011;4072;42.668;23.396;2022-12-07T10:55:20;29.17;;;19.77;;
8058;SDS011;4072;42.668;23.396;2022-12-07T10:57:53;27.63;;;19.37;;
8058;SDS011;4072;42.668;23.396;2022-12-07T11:00:28;30.43;;;19.40;;
8058;SDS011;4072;42.668;23.396;2022-12-07T11:03:03;26.13;;;16.90;;
8058;SDS011;4072;42.668;23.396;2022-12-07T11:05:39;22.27;;;14.47;;
8058;SDS011;4072;42.668;23.396;2022-12-07T11:08:13;28.10;;;17.03;;
8058;SDS011;4072;42.668;23.396;2022-12-07T11:10:46;23.43;;;13.90;;
8058;SDS011;4072;42.668;23.396;2022-12-07T11:13:20;29.17;;;15.97;;
8058;SDS011;4072;42.668;23.396;2022-12-07T11:18:48;15.03;;;10.33;;
8058;SDS011;4072;42.668;23.396;2022-12-07T11:21:20;16.13;;;10.70;;
8058;SDS011;4072;42.668;23.396;2022-12-07T11:23:55;14.40;;;7.97;;
8058;SDS011;4072;42.668;23.396;2022-12-07T11:26:27;18.33;;;9.80;;
8058;SDS011;4072;42.668;23.396;2022-12-07T11:29:03;16.73;;;10.43;;
8058;SDS011;4072;42.668;23.396;2022-12-07T11:31:34;9.37;;;6.40;;
8058;SDS011;4072;42.668;23.396;2022-12-07T11:34:08;12.73;;;8.70;;
8058;SDS011;4072;42.668;23.396;2022-12-07T11:36:39;16.27;;;10.70;;
8058;SDS011;4072;42.668;23.396;2022-12-07T11:39:11;24.73;;;12.13;;
8058;SDS011;4072;42.668;23.396;2022-12-07T11:41:44;18.57;;;13.10;;
8058;SDS011;4072;42.668;23.396;2022-12-07T11:44:19;19.47;;;13.03;;
8058;SDS011;4072;42.668;23.396;2022-12-07T11:46:54;19.87;;;11.20;;
8058;SDS011;4072;42.668;23.396;2022-12-07T11:49:26;17.77;;;11.60;;
8058;SDS011;4072;42.668;23.396;2022-12-07T11:51:57;20.83;;;13.13;;
8058;SDS011;4072;42.668;23.396;2022-12-07T11:54:26;19.93;;;13.70;;
8058;SDS011;4072;42.668;23.396;2022-12-07T11:56:56;19.37;;;15.20;;
8058;SDS011;4072;42.668;23.396;2022-12-07T11:59:25;21.17;;;14.63;;
8058;SDS011;4072;42.668;23.396;2022-12-07T12:01:57;20.27;;;13.20;;
8058;SDS011;4072;42.668;23.396;2022-12-07T12:04:35;20.70;;;15.10;;
8058;SDS011;4072;42.668;23.396;2022-12-07T12:07:07;18.87;;;14.30;;
8058;SDS011;4072;42.668;23.396;2022-12-07T12:09:59;24.00;;;14.80;;
8058;SDS011;4072;42.668;23.396;2022-12-07T12:12:42;25.00;;;14.00;;
8058;SDS011;4072;42.668;23.396;2022-12-07T12:15:37;20.90;;;13.97;;
8058;SDS011;4072;42.668;23.396;2022-12-07T12:18:23;24.83;;;12.77;;
8058;SDS011;4072;42.668;23.396;2022-12-07T12:20:56;21.57;;;13.87;;
8058;SDS011;4072;42.668;23.396;2022-12-07T12:23:27;24.63;;;15.10;;
8058;SDS011;4072;42.668;23.396;2022-12-07T12:25:58;23.03;;;15.80;;
8058;SDS011;4072;42.668;23.396;2022-12-07T12:28:28;21.70;;;12.83;;
8058;SDS011;4072;42.668;23.396;2022-12-07T12:31:05;23.67;;;12.83;;
8058;SDS011;4072;42.668;23.396;2022-12-07T12:33:34;32.87;;;15.83;;
8058;SDS011;4072;42.668;23.396;2022-12-07T12:36:22;27.87;;;16.80;;
8058;SDS011;4072;42.668;23.396;2022-12-07T12:38:51;24.17;;;14.17;;
8058;SDS011;4072;42.668;23.396;2022-12-07T12:41:51;18.70;;;13.67;;
8058;SDS011;4072;42.668;23.396;2022-12-07T12:50:16;20.87;;;13.93;;
8058;SDS011;4072;42.668;23.396;2022-12-07T12:55:42;22.67;;;13.90;;
8058;SDS011;4072;42.668;23.396;2022-12-07T12:58:29;17.77;;;11.53;;
8058;SDS011;4072;42.668;23.396;2022-12-07T13:03:51;18.27;;;11.20;;
8058;SDS011;4072;42.668;23.396;2022-12-07T13:06:27;18.20;;;12.00;;
8058;SDS011;4072;42.668;23.396;2022-12-07T13:09:00;16.33;;;10.40;;
8058;SDS011;4072;42.668;23.396;2022-12-07T13:11:30;14.93;;;11.27;;
8058;SDS011;4072;42.668;23.396;2022-12-07T13:16:57;16.93;;;9.67;;
8058;SDS011;4072;42.668;23.396;2022-12-07T13:25:11;19.70;;;11.57;;
8058;SDS011;4072;42.668;23.396;2022-12-07T13:27:43;16.53;;;10.77;;
8058;SDS011;4072;42.668;23.396;2022-12-07T13:30:15;17.53;;;12.93;;
8058;SDS011;4072;42.668;23.396;2022-12-07T13:32:43;23.60;;;12.40;;
8058;SDS011;4072;42.668;23.396;2022-12-07T13:35:28;17.07;;;11.80;;
8058;SDS011;4072;42.668;23.396;2022-12-07T13:37:57;22.03;;;12.77;;
8058;SDS011;4072;42.668;23.396;2022-12-07T13:40:25;17.67;;;11.27;;
8058;SDS011;4072;42.668;23.396;2022-12-07T13:42:58;21.20;;;11.40;;
8058;SDS011;4072;42.668;23.396;2022-12-07T13:45:27;20.57;;;11.70;;
8058;SDS011;4072;42.668;23.396;2022-12-07T13:48:10;16.73;;;10.30;;
8058;SDS011;4072;42.668;23.396;2022-12-07T13:50:42;16.53;;;11.63;;
8058;SDS011;4072;42.668;23.396;2022-12-07T13:53:11;19.80;;;12.00;;
8058;SDS011;4072;42.668;23.396;2022-12-07T13:55:44;17.33;;;11.40;;
8058;SDS011;4072;42.668;23.396;2022-12-07T13:58:21;21.17;;;11.40;;
8058;SDS011;4072;42.668;23.396;2022-12-07T14:00:49;17.10;;;11.90;;
8058;SDS011;4072;42.668;23.396;2022-12-07T14:03:26;19.70;;;12.73;;
8058;SDS011;4072;42.668;23.396;2022-12-07T14:08:40;19.00;;;13.57;;
8058;SDS011;4072;42.668;23.396;2022-12-07T14:11:10;20.87;;;13.27;;
8058;SDS011;4072;42.668;23.396;2022-12-07T14:13:45;26.20;;;11.90;;
8058;SDS011;4072;42.668;23.396;2022-12-07T14:16:22;19.70;;;11.53;;
8058;SDS011;4072;42.668;23.396;2022-12-07T14:18:50;20.63;;;11.87;;
8058;SDS011;4072;42.668;23.396;2022-12-07T14:21:19;19.03;;;12.73;;
8058;SDS011;4072;42.668;23.396;2022-12-07T14:24:02;20.20;;;12.27;;
8058;SDS011;4072;42.668;23.396;2022-12-07T14:26:31;21.77;;;12.53;;
8058;SDS011;4072;42.668;23.396;2022-12-07T14:31:46;21.10;;;12.47;;
8058;SDS011;4072;42.668;23.396;2022-12-07T14:34:14;25.90;;;14.33;;
8058;SDS011;4072;42.668;23.396;2022-12-07T14:36:42;23.50;;;14.50;;
8058;SDS011;4072;42.668;23.396;2022-12-07T14:39:10;26.37;;;13.70;;
8058;SDS011;4072;42.668;23.396;2022-12-07T14:41:40;19.73;;;12.87;;
8058;SDS011;4072;42.668;23.396;2022-12-07T14:44:21;22.90;;;14.17;;
8058;SDS011;4072;42.668;23.396;2022-12-07T14:47:02;22.40;;;16.27;;
8058;SDS011;4072;42.668;23.396;2022-12-07T14:49:49;24.50;;;15.17;;
8058;SDS011;4072;42.668;23.396;2022-12-07T14:52:18;23.73;;;13.90;;
8058;SDS011;4072;42.668;23.396;2022-12-07T14:55:11;25.83;;;14.40;;
8058;SDS011;4072;42.668;23.396;2022-12-07T14:57:40;28.23;;;16.40;;
8058;SDS011;4072;42.668;23.396;2022-12-07T15:00:09;27.00;;;14.73;;
8058;SDS011;4072;42.668;23.396;2022-12-07T15:02:42;41.60;;;20.13;;
8058;SDS011;4072;42.668;23.396;2022-12-07T15:05:11;27.90;;;16.43;;
8058;SDS011;4072;42.668;23.396;2022-12-07T15:07:42;31.20;;;17.70;;
8058;SDS011;4072;42.668;23.396;2022-12-07T15:10:13;32.30;;;17.40;;
8058;SDS011;4072;42.668;23.396;2022-12-07T15:12:49;29.63;;;16.30;;
8058;SDS011;4072;42.668;23.396;2022-12-07T15:15:17;26.60;;;18.23;;
8058;SDS011;4072;42.668;23.396;2022-12-07T15:17:46;23.30;;;15.13;;
8058;SDS011;4072;42.668;23.396;2022-12-07T15:20:14;25.30;;;17.50;;
8058;SDS011;4072;42.668;23.396;2022-12-07T15:22:44;25.07;;;15.70;;
8058;SDS011;4072;42.668;23.396;2022-12-07T15:25:13;24.83;;;15.10;;
8058;SDS011;4072;42.668;23.396;2022-12-07T15:27:41;25.30;;;14.97;;
8058;SDS011;4072;42.668;23.396;2022-12-07T15:30:12;44.77;;;28.40;;
8058;SDS011;4072;42.668;23.396;2022-12-07T15:32:40;40.60;;;25.17;;
8058;SDS011;4072;42.668;23.396;2022-12-07T15:35:10;29.57;;;18.53;;
8058;SDS011;4072;42.668;23.396;2022-12-07T15:37:38;47.23;;;26.50;;
8058;SDS011;4072;42.668;23.396;2022-12-07T15:40:07;32.70;;;21.53;;